Terminal Aerodrome Forecast
Issued by NWS

Current Version | Previous Version | Text Only | Print | Product List | Glossary Off
Versions: 1 2 3 4 5 6 7 8 9 10 11 12 13 14 15 16 17 18 19 20 21 22 23 24 25 26 27 28 29 30 31 32 33 34 35 36 37 38 39 40 41 42 43 44 45 46

000
FTUS41 KRNK 292324
TAFLWB
TAF
KLWB 292324Z 3000/3024 24005KT P6SM SCT050 BKN090
      TEMPO 3000/3002 4SM TSRA BKN035CB OVC050
     FM300700 00000KT 4SM BR BKN150
     FM301000 00000KT 1/2SM FG BKN001
     FM301300 21003KT P6SM SCT020
     FM301700 21005KT P6SM VCTS SCT060CB BKN250=

USA.gov is the U.S. government's official web portal to all federal, state and local government web resources and services.